sensor_id;sensor_type;location;lat;lon;timestamp;pressure;altitude;pressure_sealevel;temperature;humidity
3524;BME280;1776;53.330;11.498;2023-04-23T00:00:30;26424.13;;;-147.39;39.60
3524;BME280;1776;53.330;11.498;2023-04-23T00:02:56;26448.53;;;-147.39;39.67
3524;BME280;1776;53.330;11.498;2023-04-23T00:05:25;26403.78;;;-147.39;39.97
3524;BME280;1776;53.330;11.498;2023-04-23T00:07:52;26430.22;;;-147.39;40.16
3524;BME280;1776;53.330;11.498;2023-04-23T00:10:18;26352.91;;;-147.39;40.09
3524;BME280;1776;53.330;11.498;2023-04-23T00:12:43;26367.16;;;-147.39;40.19
3524;BME280;1776;53.330;11.498;2023-04-23T00:15:10;26430.22;;;-147.39;40.18
3524;BME280;1776;53.330;11.498;2023-04-23T00:17:36;26377.34;;;-147.39;40.61
3524;BME280;1776;53.330;11.498;2023-04-23T00:20:01;26352.91;;;-147.39;40.42
3524;BME280;1776;53.330;11.498;2023-04-23T00:22:26;26334.59;;;-147.39;40.37
3524;BME280;1776;53.330;11.498;2023-04-23T00:24:52;26375.31;;;-147.39;40.44
3524;BME280;1776;53.330;11.498;2023-04-23T00:27:17;26379.38;;;-147.39;40.61
3524;BME280;1776;53.330;11.498;2023-04-23T00:29:42;26377.34;;;-147.39;40.57
3524;BME280;1776;53.330;11.498;2023-04-23T00:32:08;26365.13;;;-147.39;40.62
3524;BME280;1776;53.330;11.498;2023-04-23T00:34:33;26348.84;;;-147.39;40.81
3524;BME280;1776;53.330;11.498;2023-04-23T00:36:58;26375.31;;;-147.39;41.11
3524;BME280;1776;53.330;11.498;2023-04-23T00:39:23;26336.66;;;-147.39;41.34
3524;BME280;1776;53.330;11.498;2023-04-23T00:41:49;26340.72;;;-147.39;41.06
3524;BME280;1776;53.330;11.498;2023-04-23T00:44:14;26328.50;;;-147.39;41.16
3524;BME280;1776;53.330;11.498;2023-04-23T00:46:40;26330.53;;;-147.39;41.22
3524;BME280;1776;53.330;11.498;2023-04-23T00:49:06;26328.50;;;-147.39;41.26
3524;BME280;1776;53.330;11.498;2023-04-23T00:51:31;26357.00;;;-147.39;41.21
3524;BME280;1776;53.330;11.498;2023-04-23T00:53:57;26318.34;;;-147.39;41.65
3524;BME280;1776;53.330;11.498;2023-04-23T00:56:22;26346.81;;;-147.39;41.63
3524;BME280;1776;53.330;11.498;2023-04-23T00:58:52;26342.75;;;-147.39;41.55
3524;BME280;1776;53.330;11.498;2023-04-23T01:01:19;26289.84;;;-147.39;41.55
3524;BME280;1776;53.330;11.498;2023-04-23T01:03:47;26314.25;;;-147.39;41.73
3524;BME280;1776;53.330;11.498;2023-04-23T01:06:14;26328.50;;;-147.39;41.87
3524;BME280;1776;53.330;11.498;2023-04-23T01:08:39;26306.13;;;-147.39;41.78
3524;BME280;1776;53.330;11.498;2023-04-23T01:11:07;26363.09;;;-147.39;41.81
3524;BME280;1776;53.330;11.498;2023-04-23T01:13:33;26285.78;;;-147.39;42.11
3524;BME280;1776;53.330;11.498;2023-04-23T01:15:58;26281.72;;;-147.39;42.27
3524;BME280;1776;53.330;11.498;2023-04-23T01:18:24;26277.66;;;-147.39;42.43
3524;BME280;1776;53.330;11.498;2023-04-23T01:20:49;26271.53;;;-147.39;42.61
3524;BME280;1776;53.330;11.498;2023-04-23T01:23:16;26298.00;;;-147.39;42.60
3524;BME280;1776;53.330;11.498;2023-04-23T01:25:42;26269.50;;;-147.39;42.65
3524;BME280;1776;53.330;11.498;2023-04-23T01:28:08;26241.03;;;-147.39;42.78
3524;BME280;1776;53.330;11.498;2023-04-23T01:30:34;26267.47;;;-147.39;42.91
3524;BME280;1776;53.330;11.498;2023-04-23T01:33:00;26287.81;;;-147.39;42.99
3524;BME280;1776;53.330;11.498;2023-04-23T01:35:25;26279.69;;;-147.39;43.00
3524;BME280;1776;53.330;11.498;2023-04-23T01:37:52;26261.38;;;-147.39;43.17
3524;BME280;1776;53.330;11.498;2023-04-23T01:40:19;26277.66;;;-147.39;43.27
3524;BME280;1776;53.330;11.498;2023-04-23T01:42:45;26261.38;;;-147.39;43.60
3524;BME280;1776;53.330;11.498;2023-04-23T01:45:10;26202.38;;;-147.39;43.51
3524;BME280;1776;53.330;11.498;2023-04-23T01:47:36;26192.19;;;-147.39;43.98
3524;BME280;1776;53.330;11.498;2023-04-23T01:50:01;26222.72;;;-147.39;44.15
3524;BME280;1776;53.330;11.498;2023-04-23T01:52:28;26216.63;;;-147.39;44.05
3524;BME280;1776;53.330;11.498;2023-04-23T01:54:53;26169.81;;;-147.39;44.48
3524;BME280;1776;53.330;11.498;2023-04-23T01:57:18;26161.69;;;-147.39;44.47
3524;BME280;1776;53.330;11.498;2023-04-23T01:59:48;26157.63;;;-147.39;44.64
3524;BME280;1776;53.330;11.498;2023-04-23T02:02:14;26216.63;;;-147.39;44.61
3524;BME280;1776;53.330;11.498;2023-04-23T02:04:40;26163.72;;;-147.39;44.78
3524;BME280;1776;53.330;11.498;2023-04-23T02:07:08;26163.72;;;-147.39;45.36
3524;BME280;1776;53.330;11.498;2023-04-23T02:09:33;26159.66;;;-147.39;45.38
3524;BME280;1776;53.330;11.498;2023-04-23T02:11:58;26112.88;;;-147.39;45.50
3524;BME280;1776;53.330;11.498;2023-04-23T02:14:23;26090.47;;;-147.39;46.05
3524;BME280;1776;53.330;11.498;2023-04-23T02:16:49;26167.78;;;-147.39;45.64
3524;BME280;1776;53.330;11.498;2023-04-23T02:19:15;26116.94;;;-147.39;45.88
3524;BME280;1776;53.330;11.498;2023-04-23T02:21:41;26088.44;;;-147.39;46.00
3524;BME280;1776;53.330;11.498;2023-04-23T02:24:06;26094.56;;;-147.39;46.37
3524;BME280;1776;53.330;11.498;2023-04-23T02:26:31;26090.47;;;-147.39;47.95
3524;BME280;1776;53.330;11.498;2023-04-23T02:28:57;25996.91;;;-147.39;50.01
3524;BME280;1776;53.330;11.498;2023-04-23T02:31:22;25970.47;;;-147.39;50.99
3524;BME280;1776;53.330;11.498;2023-04-23T02:33:48;25921.63;;;-147.39;52.35
3524;BME280;1776;53.330;11.498;2023-04-23T02:36:13;25848.41;;;-147.39;52.67
3524;BME280;1776;53.330;11.498;2023-04-23T02:38:39;25885.03;;;-147.39;53.07
3524;BME280;1776;53.330;11.498;2023-04-23T02:41:09;25846.38;;;-147.39;53.00
3524;BME280;1776;53.330;11.498;2023-04-23T02:43:34;25842.31;;;-147.39;52.93
3524;BME280;1776;53.330;11.498;2023-04-23T02:45:59;25817.91;;;-147.39;53.96
3524;BME280;1776;53.330;11.498;2023-04-23T02:48:33;25826.03;;;-147.39;53.92
3524;BME280;1776;53.330;11.498;2023-04-23T02:50:58;25740.59;;;-147.39;54.64
3524;BME280;1776;53.330;11.498;2023-04-23T02:53:23;25803.66;;;-147.39;54.05
3524;BME280;1776;53.330;11.498;2023-04-23T02:55:48;25748.75;;;-147.39;54.20
3524;BME280;1776;53.330;11.498;2023-04-23T02:58:14;25767.03;;;-147.39;54.66
3524;BME280;1776;53.330;11.498;2023-04-23T03:00:39;25756.88;;;-147.39;54.24
3524;BME280;1776;53.330;11.498;2023-04-23T03:03:04;25750.78;;;-147.39;54.45
3524;BME280;1776;53.330;11.498;2023-04-23T03:05:30;25750.78;;;-147.39;54.56
3524;BME280;1776;53.330;11.498;2023-04-23T03:07:55;25771.13;;;-147.39;54.28
3524;BME280;1776;53.330;11.498;2023-04-23T03:10:20;25787.38;;;-147.39;54.47
3524;BME280;1776;53.330;11.498;2023-04-23T03:12:46;25773.16;;;-147.39;54.56
3524;BME280;1776;53.330;11.498;2023-04-23T03:15:11;25750.78;;;-147.39;54.73
3524;BME280;1776;53.330;11.498;2023-04-23T03:17:36;25762.97;;;-147.39;54.96
3524;BME280;1776;53.330;11.498;2023-04-23T03:20:02;25754.84;;;-147.39;55.23
3524;BME280;1776;53.330;11.498;2023-04-23T03:22:28;25706.03;;;-147.39;55.42
3524;BME280;1776;53.330;11.498;2023-04-23T03:24:53;25748.75;;;-147.39;56.01
3524;BME280;1776;53.330;11.498;2023-04-23T03:27:19;25726.38;;;-147.39;56.95
3524;BME280;1776;53.330;11.498;2023-04-23T03:29:44;25618.56;;;-147.39;57.63
3524;BME280;1776;53.330;11.498;2023-04-23T03:32:10;25516.84;;;-147.39;58.65
3524;BME280;1776;53.330;11.498;2023-04-23T03:34:35;25368.38;;;-147.39;60.24
3524;BME280;1776;53.330;11.498;2023-04-23T03:37:00;25191.44;;;-147.39;61.33
3524;BME280;1776;53.330;11.498;2023-04-23T03:39:27;25089.72;;;-147.39;61.36
3524;BME280;1776;53.330;11.498;2023-04-23T03:41:52;25067.38;;;-147.39;60.81
3524;BME280;1776;53.330;11.498;2023-04-23T03:44:17;25057.19;;;-147.39;60.91
3524;BME280;1776;53.330;11.498;2023-04-23T03:46:42;25103.97;;;-147.39;60.75
3524;BME280;1776;53.330;11.498;2023-04-23T03:49:08;25063.28;;;-147.39;61.18
3524;BME280;1776;53.330;11.498;2023-04-23T03:51:33;25089.72;;;-147.39;61.39
3524;BME280;1776;53.330;11.498;2023-04-23T03:53:58;25047.03;;;-147.39;61.39
3524;BME280;1776;53.330;11.498;2023-04-23T03:56:23;25069.41;;;-147.39;62.08
3524;BME280;1776;53.330;11.498;2023-04-23T03:58:49;25032.78;;;-147.39;62.44
3524;BME280;1776;53.330;11.498;2023-04-23T04:01:14;25028.72;;;-147.39;62.49
3524;BME280;1776;53.330;11.498;2023-04-23T04:03:40;24971.78;;;-147.39;62.95
3524;BME280;1776;53.330;11.498;2023-04-23T04:06:05;24933.13;;;-147.39;63.49
3524;BME280;1776;53.330;11.498;2023-04-23T04:08:31;24927.03;;;-147.39;63.77
3524;BME280;1776;53.330;11.498;2023-04-23T04:10:57;24864.00;;;-147.39;64.44
3524;BME280;1776;53.330;11.498;2023-04-23T04:13:22;24825.34;;;-147.39;64.71
3524;BME280;1776;53.330;11.498;2023-04-23T04:15:47;24815.19;;;-147.39;65.04
3524;BME280;1776;53.330;11.498;2023-04-23T04:18:12;24733.84;;;-147.39;65.43
3524;BME280;1776;53.330;11.498;2023-04-23T04:20:38;24683.00;;;-147.39;66.95
3524;BME280;1776;53.330;11.498;2023-04-23T04:23:03;24581.31;;;-147.39;67.10
3524;BME280;1776;53.330;11.498;2023-04-23T04:25:28;24538.63;;;-147.39;68.26
3524;BME280;1776;53.330;11.498;2023-04-23T04:27:54;24457.28;;;-147.39;69.14
3524;BME280;1776;53.330;11.498;2023-04-23T04:30:19;24428.81;;;-147.39;69.37
3524;BME280;1776;53.330;11.498;2023-04-23T04:32:45;24345.44;;;-147.39;69.74
3524;BME280;1776;53.330;11.498;2023-04-23T04:35:11;24251.91;;;-147.39;70.72
3524;BME280;1776;53.330;11.498;2023-04-23T04:37:39;24190.91;;;-147.39;71.57
3524;BME280;1776;53.330;11.498;2023-04-23T04:40:05;24097.38;;;-147.39;72.93
3524;BME280;1776;53.330;11.498;2023-04-23T04:42:31;24131.94;;;-147.39;72.60
3524;BME280;1776;53.330;11.498;2023-04-23T04:44:57;23985.53;;;-147.39;72.42
3524;BME280;1776;53.330;11.498;2023-04-23T04:47:23;24044.50;;;-147.39;72.40
3524;BME280;1776;53.330;11.498;2023-04-23T04:49:49;24022.16;;;-147.39;72.64
3524;BME280;1776;53.330;11.498;2023-04-23T04:52:15;24066.88;;;-147.39;72.51
3524;BME280;1776;53.330;11.498;2023-04-23T04:54:40;23977.41;;;-147.39;73.02
3524;BME280;1776;53.330;11.498;2023-04-23T04:57:06;23957.09;;;-147.39;73.34
3524;BME280;1776;53.330;11.498;2023-04-23T04:59:31;23971.31;;;-147.39;73.42
3524;BME280;1776;53.330;11.498;2023-04-23T05:01:56;23995.72;;;-147.39;72.74
3524;BME280;1776;53.330;11.498;2023-04-23T05:04:22;23999.78;;;-147.39;73.05
3524;BME280;1776;53.330;11.498;2023-04-23T05:06:47;24003.84;;;-147.39;73.07
3524;BME280;1776;53.330;11.498;2023-04-23T05:09:12;23948.94;;;-147.39;73.02
3524;BME280;1776;53.330;11.498;2023-04-23T05:11:37;23953.00;;;-147.39;74.17
3524;BME280;1776;53.330;11.498;2023-04-23T05:14:04;23845.25;;;-147.39;74.91
3524;BME280;1776;53.330;11.498;2023-04-23T05:16:29;23835.09;;;-147.39;74.86
3524;BME280;1776;53.330;11.498;2023-04-23T05:18:55;23829.00;;;-147.39;74.78
3524;BME280;1776;53.330;11.498;2023-04-23T05:21:20;23853.38;;;-147.39;75.53
3524;BME280;1776;53.330;11.498;2023-04-23T05:23:45;23768.00;;;-147.39;75.79
3524;BME280;1776;53.330;11.498;2023-04-23T05:26:11;23757.84;;;-147.39;76.79
3524;BME280;1776;53.330;11.498;2023-04-23T05:28:36;23666.34;;;-147.39;77.15
3524;BME280;1776;53.330;11.498;2023-04-23T05:31:02;23641.94;;;-147.39;77.09
3524;BME280;1776;53.330;11.498;2023-04-23T05:33:27;23580.97;;;-147.39;77.60
3524;BME280;1776;53.330;11.498;2023-04-23T05:35:53;23574.84;;;-147.39;78.18
3524;BME280;1776;53.330;11.498;2023-04-23T05:38:19;23542.34;;;-147.39;78.74
3524;BME280;1776;53.330;11.498;2023-04-23T05:40:44;23475.25;;;-147.39;78.43
3524;BME280;1776;53.330;11.498;2023-04-23T05:43:09;23463.03;;;-147.39;78.64
3524;BME280;1776;53.330;11.498;2023-04-23T05:45:35;23383.75;;;-147.39;80.11
3524;BME280;1776;53.330;11.498;2023-04-23T05:48:00;23221.13;;;-147.39;81.74
3524;BME280;1776;53.330;11.498;2023-04-23T05:50:26;23147.94;;;-147.39;81.27
3524;BME280;1776;53.330;11.498;2023-04-23T05:52:51;23042.25;;;-147.39;81.16
3524;BME280;1776;53.330;11.498;2023-04-23T05:55:16;23042.25;;;-147.39;80.87
3524;BME280;1776;53.330;11.498;2023-04-23T05:57:42;23107.28;;;-147.39;80.17
3524;BME280;1776;53.330;11.498;2023-04-23T06:00:08;23105.25;;;-147.39;79.40
3524;BME280;1776;53.330;11.498;2023-04-23T06:02:34;23143.88;;;-147.39;78.99
3524;BME280;1776;53.330;11.498;2023-04-23T06:04:59;23178.44;;;-147.39;78.10
3524;BME280;1776;53.330;11.498;2023-04-23T06:07:24;23202.84;;;-147.39;78.49
3524;BME280;1776;53.330;11.498;2023-04-23T06:09:49;23152.03;;;-147.39;78.44
3524;BME280;1776;53.330;11.498;2023-04-23T06:12:15;23176.41;;;-147.39;77.97
3524;BME280;1776;53.330;11.498;2023-04-23T06:14:40;23154.06;;;-147.39;78.18
3524;BME280;1776;53.330;11.498;2023-04-23T06:17:06;23192.69;;;-147.39;77.76
3524;BME280;1776;53.330;11.498;2023-04-23T06:19:31;23213.00;;;-147.39;77.77
3524;BME280;1776;53.330;11.498;2023-04-23T06:21:56;23198.78;;;-147.39;78.26
3524;BME280;1776;53.330;11.498;2023-04-23T06:24:21;23221.13;;;-147.39;78.40
3524;BME280;1776;53.330;11.498;2023-04-23T06:26:47;23154.06;;;-147.39;78.70
3524;BME280;1776;53.330;11.498;2023-04-23T06:29:12;23170.31;;;-147.39;78.67
3524;BME280;1776;53.330;11.498;2023-04-23T06:31:37;23194.72;;;-147.39;78.50
3524;BME280;1776;53.330;11.498;2023-04-23T06:34:03;23160.16;;;-147.39;78.53
3524;BME280;1776;53.330;11.498;2023-04-23T06:36:29;23166.25;;;-147.39;78.72
3524;BME280;1776;53.330;11.498;2023-04-23T06:38:54;23200.81;;;-147.39;78.37
3524;BME280;1776;53.330;11.498;2023-04-23T06:41:19;23178.44;;;-147.39;78.81
3524;BME280;1776;53.330;11.498;2023-04-23T06:43:45;23152.03;;;-147.39;78.70
3524;BME280;1776;53.330;11.498;2023-04-23T06:46:12;23145.91;;;-147.39;79.51
3524;BME280;1776;53.330;11.498;2023-04-23T06:48:37;23158.13;;;-147.39;79.16
3524;BME280;1776;53.330;11.498;2023-04-23T06:51:03;23145.91;;;-147.39;79.39
3524;BME280;1776;53.330;11.498;2023-04-23T06:53:30;23149.97;;;-147.39;79.32
3524;BME280;1776;53.330;11.498;2023-04-23T06:55:55;23113.41;;;-147.39;79.80
3524;BME280;1776;53.330;11.498;2023-04-23T06:58:21;23121.53;;;-147.39;79.85
3524;BME280;1776;53.330;11.498;2023-04-23T07:00:51;23089.00;;;-147.39;79.91
3524;BME280;1776;53.330;11.498;2023-04-23T07:03:17;23113.41;;;-147.39;79.68
3524;BME280;1776;53.330;11.498;2023-04-23T07:05:42;23137.78;;;-147.39;78.92
3524;BME280;1776;53.330;11.498;2023-04-23T07:08:08;23178.44;;;-147.39;78.87
3524;BME280;1776;53.330;11.498;2023-04-23T07:10:33;23178.44;;;-147.39;78.31
3524;BME280;1776;53.330;11.498;2023-04-23T07:12:58;23164.22;;;-147.39;77.83
3524;BME280;1776;53.330;11.498;2023-04-23T07:15:23;23263.81;;;-147.39;77.86
3524;BME280;1776;53.330;11.498;2023-04-23T07:17:49;23208.94;;;-147.39;78.11
3524;BME280;1776;53.330;11.498;2023-04-23T07:20:14;23174.38;;;-147.39;78.58
3524;BME280;1776;53.330;11.498;2023-04-23T07:22:39;23190.63;;;-147.39;78.09
3524;BME280;1776;53.330;11.498;2023-04-23T07:25:05;23245.53;;;-147.39;77.27
3524;BME280;1776;53.330;11.498;2023-04-23T07:27:32;23231.28;;;-147.39;78.00
3524;BME280;1776;53.330;11.498;2023-04-23T07:29:58;23235.38;;;-147.39;77.92
3524;BME280;1776;53.330;11.498;2023-04-23T07:32:23;23261.78;;;-147.39;77.36
3524;BME280;1776;53.330;11.498;2023-04-23T07:34:52;23259.75;;;-147.39;77.38
3524;BME280;1776;53.330;11.498;2023-04-23T07:37:17;23284.16;;;-147.39;77.32
3524;BME280;1776;53.330;11.498;2023-04-23T07:39:42;23282.13;;;-147.39;77.42
3524;BME280;1776;53.330;11.498;2023-04-23T07:42:07;23231.28;;;-147.39;77.94
3524;BME280;1776;53.330;11.498;2023-04-23T07:44:33;23223.16;;;-147.39;78.38
3524;BME280;1776;53.330;11.498;2023-04-23T07:46:58;23251.63;;;-147.39;78.09
3524;BME280;1776;53.330;11.498;2023-04-23T07:49:24;23237.41;;;-147.39;78.13
3524;BME280;1776;53.330;11.498;2023-04-23T07:51:49;23251.63;;;-147.39;77.72
3524;BME280;1776;53.330;11.498;2023-04-23T07:54:15;23274.00;;;-147.39;77.71
3524;BME280;1776;53.330;11.498;2023-04-23T07:56:40;23300.41;;;-147.39;77.49
3524;BME280;1776;53.330;11.498;2023-04-23T07:59:05;23288.22;;;-147.39;77.29
3524;BME280;1776;53.330;11.498;2023-04-23T08:01:31;23294.31;;;-147.39;77.53
3524;BME280;1776;53.330;11.498;2023-04-23T08:03:56;23365.47;;;-147.39;75.58
3524;BME280;1776;53.330;11.498;2023-04-23T08:06:24;23475.25;;;-147.39;73.79
3524;BME280;1776;53.330;11.498;2023-04-23T08:08:51;23532.16;;;-147.39;72.32
3524;BME280;1776;53.330;11.498;2023-04-23T08:11:16;23611.44;;;-147.39;69.90
3524;BME280;1776;53.330;11.498;2023-04-23T08:13:41;23635.84;;;-147.39;69.16
3524;BME280;1776;53.330;11.498;2023-04-23T08:16:07;23662.28;;;-147.39;69.64
3524;BME280;1776;53.330;11.498;2023-04-23T08:18:32;23682.59;;;-147.39;69.04
3524;BME280;1776;53.330;11.498;2023-04-23T08:20:57;23672.44;;;-147.39;69.61
3524;BME280;1776;53.330;11.498;2023-04-23T08:23:23;23715.13;;;-147.39;69.81
3524;BME280;1776;53.330;11.498;2023-04-23T08:25:49;23751.72;;;-147.39;69.15
3524;BME280;1776;53.330;11.498;2023-04-23T08:28:14;23662.28;;;-147.39;69.33
3524;BME280;1776;53.330;11.498;2023-04-23T08:30:40;23715.13;;;-147.39;69.76
3524;BME280;1776;53.330;11.498;2023-04-23T08:33:05;23698.88;;;-147.39;70.12
3524;BME280;1776;53.330;11.498;2023-04-23T08:35:30;23711.06;;;-147.39;70.38
3524;BME280;1776;53.330;11.498;2023-04-23T08:37:56;23711.06;;;-147.39;70.43
3524;BME280;1776;53.330;11.498;2023-04-23T08:40:21;23719.19;;;-147.39;70.03
3524;BME280;1776;53.330;11.498;2023-04-23T08:42:54;23733.44;;;-147.39;70.21
3524;BME280;1776;53.330;11.498;2023-04-23T08:45:21;23698.88;;;-147.39;70.37
3524;BME280;1776;53.330;11.498;2023-04-23T08:47:47;23741.56;;;-147.39;70.11
3524;BME280;1776;53.330;11.498;2023-04-23T08:50:14;23666.34;;;-147.39;70.40
3524;BME280;1776;53.330;11.498;2023-04-23T08:52:52;23731.41;;;-147.39;69.99
3524;BME280;1776;53.330;11.498;2023-04-23T08:55:18;23721.25;;;-147.39;69.78
3524;BME280;1776;53.330;11.498;2023-04-23T08:57:45;23725.31;;;-147.39;69.92
3524;BME280;1776;53.330;11.498;2023-04-23T09:00:12;23782.22;;;-147.39;69.49
3524;BME280;1776;53.330;11.498;2023-04-23T09:02:42;23747.66;;;-147.39;69.33
3524;BME280;1776;53.330;11.498;2023-04-23T09:05:08;23757.84;;;-147.39;69.48
3524;BME280;1776;53.330;11.498;2023-04-23T09:07:35;23800.53;;;-147.39;68.92
3524;BME280;1776;53.330;11.498;2023-04-23T09:10:01;23835.09;;;-147.39;69.43
3524;BME280;1776;53.330;11.498;2023-04-23T09:12:27;23831.03;;;-147.39;69.29
3524;BME280;1776;53.330;11.498;2023-04-23T09:14:52;23873.72;;;-147.39;68.81
3524;BME280;1776;53.330;11.498;2023-04-23T09:17:18;23908.28;;;-147.39;68.13
3524;BME280;1776;53.330;11.498;2023-04-23T09:19:45;23999.78;;;-147.39;67.83
3524;BME280;1776;53.330;11.498;2023-04-23T09:22:10;23940.81;;;-147.39;68.83
3524;BME280;1776;53.330;11.498;2023-04-23T09:24:40;23971.31;;;-147.39;67.80
3524;BME280;1776;53.330;11.498;2023-04-23T09:27:06;24042.47;;;-147.39;66.98
3524;BME280;1776;53.330;11.498;2023-04-23T09:29:31;24062.81;;;-147.39;66.27
3524;BME280;1776;53.330;11.498;2023-04-23T09:32:05;24070.94;;;-147.39;65.56
3524;BME280;1776;53.330;11.498;2023-04-23T09:34:34;24136.00;;;-147.39;65.11
3524;BME280;1776;53.330;11.498;2023-04-23T09:37:00;24154.31;;;-147.39;64.60
3524;BME280;1776;53.330;11.498;2023-04-23T09:39:28;24231.56;;;-147.39;64.37
3524;BME280;1776;53.330;11.498;2023-04-23T09:41:53;24140.06;;;-147.39;64.09
3524;BME280;1776;53.330;11.498;2023-04-23T09:44:21;24280.38;;;-147.39;63.84
3524;BME280;1776;53.330;11.498;2023-04-23T09:46:47;24262.06;;;-147.39;63.29
3524;BME280;1776;53.330;11.498;2023-04-23T09:49:14;24286.47;;;-147.39;62.65
3524;BME280;1776;53.330;11.498;2023-04-23T09:51:45;24298.66;;;-147.39;62.68
3524;BME280;1776;53.330;11.498;2023-04-23T09:54:21;24361.72;;;-147.39;63.49
3524;BME280;1776;53.330;11.498;2023-04-23T09:56:52;24310.88;;;-147.39;62.63
3524;BME280;1776;53.330;11.498;2023-04-23T09:59:29;24264.09;;;-147.39;62.82
3524;BME280;1776;53.330;11.498;2023-04-23T10:01:55;24294.59;;;-147.39;62.50
3524;BME280;1776;53.330;11.498;2023-04-23T10:04:22;24294.59;;;-147.39;62.57
3524;BME280;1776;53.330;11.498;2023-04-23T10:06:56;24286.47;;;-147.39;62.80
3524;BME280;1776;53.330;11.498;2023-04-23T10:09:22;24406.44;;;-147.39;62.25
3524;BME280;1776;53.330;11.498;2023-04-23T10:11:53;24369.84;;;-147.39;61.80
3524;BME280;1776;53.330;11.498;2023-04-23T10:14:20;24479.66;;;-147.39;60.75
3524;BME280;1776;53.330;11.498;2023-04-23T10:16:46;24512.19;;;-147.39;59.31
3524;BME280;1776;53.330;11.498;2023-04-23T10:19:13;24512.19;;;-147.39;59.14
3524;BME280;1776;53.330;11.498;2023-04-23T10:21:40;24597.59;;;-147.39;58.98
3524;BME280;1776;53.330;11.498;2023-04-23T10:24:08;24634.19;;;-147.39;58.48
3524;BME280;1776;53.330;11.498;2023-04-23T10:26:37;24666.72;;;-147.39;58.33
3524;BME280;1776;53.330;11.498;2023-04-23T10:29:04;24766.38;;;-147.39;57.91
3524;BME280;1776;53.330;11.498;2023-04-23T10:31:33;24776.53;;;-147.39;56.91
3524;BME280;1776;53.330;11.498;2023-04-23T10:34:01;24925.00;;;-147.39;54.81
3524;BME280;1776;53.330;11.498;2023-04-23T10:36:31;24943.31;;;-147.39;53.28
3524;BME280;1776;53.330;11.498;2023-04-23T10:38:57;24988.03;;;-147.39;52.38
3524;BME280;1776;53.330;11.498;2023-04-23T10:41:28;25026.69;;;-147.39;54.32
3524;BME280;1776;53.330;11.498;2023-04-23T10:43:56;25122.28;;;-147.39;53.62
3524;BME280;1776;53.330;11.498;2023-04-23T10:46:29;25282.94;;;-147.39;50.27
3524;BME280;1776;53.330;11.498;2023-04-23T10:49:10;25272.78;;;-147.39;49.62
3524;BME280;1776;53.330;11.498;2023-04-23T10:51:38;25272.78;;;-147.39;49.77
3524;BME280;1776;53.330;11.498;2023-04-23T10:54:04;25364.31;;;-147.39;49.26
3524;BME280;1776;53.330;11.498;2023-04-23T10:56:30;25415.16;;;-147.39;48.39
3524;BME280;1776;53.330;11.498;2023-04-23T10:58:56;25419.22;;;-147.39;48.33
3524;BME280;1776;53.330;11.498;2023-04-23T11:01:27;25429.38;;;-147.39;48.47
3524;BME280;1776;53.330;11.498;2023-04-23T11:03:52;25504.66;;;-147.39;48.10
3524;BME280;1776;53.330;11.498;2023-04-23T11:06:48;25463.97;;;-147.39;47.33
3524;BME280;1776;53.330;11.498;2023-04-23T11:09:28;25478.22;;;-147.39;47.66
3524;BME280;1776;53.330;11.498;2023-04-23T11:11:54;25533.13;;;-147.39;48.55
3524;BME280;1776;53.330;11.498;2023-04-23T11:14:32;25630.75;;;-147.39;46.81
3524;BME280;1776;53.330;11.498;2023-04-23T11:16:58;25616.53;;;-147.39;46.55
3524;BME280;1776;53.330;11.498;2023-04-23T11:19:23;25655.16;;;-147.39;46.51
3524;BME280;1776;53.330;11.498;2023-04-23T11:24:23;25608.38;;;-147.39;46.35
3524;BME280;1776;53.330;11.498;2023-04-23T11:26:51;25655.16;;;-147.39;46.89
3524;BME280;1776;53.330;11.498;2023-04-23T11:29:19;25738.56;;;-147.39;46.47
3524;BME280;1776;53.330;11.498;2023-04-23T11:31:46;25744.66;;;-147.39;46.23
3524;BME280;1776;53.330;11.498;2023-04-23T11:34:12;25777.22;;;-147.39;45.58
3524;BME280;1776;53.330;11.498;2023-04-23T11:36:37;25594.16;;;-147.39;44.74
3524;BME280;1776;53.330;11.498;2023-04-23T11:39:03;25813.81;;;-147.39;44.15
3524;BME280;1776;53.330;11.498;2023-04-23T11:41:28;25760.94;;;-147.39;45.63
3524;BME280;1776;53.330;11.498;2023-04-23T11:43:54;25775.19;;;-147.39;44.85
3524;BME280;1776;53.330;11.498;2023-04-23T11:46:22;25781.28;;;-147.39;45.12
3524;BME280;1776;53.330;11.498;2023-04-23T11:48:47;25828.06;;;-147.39;44.04
3524;BME280;1776;53.330;11.498;2023-04-23T11:51:13;25809.75;;;-147.39;45.13
3524;BME280;1776;53.330;11.498;2023-04-23T11:53:45;25864.69;;;-147.39;44.86
3524;BME280;1776;53.330;11.498;2023-04-23T11:56:10;25854.50;;;-147.39;45.22
3524;BME280;1776;53.330;11.498;2023-04-23T11:58:36;25874.84;;;-147.39;45.09
3524;BME280;1776;53.330;11.498;2023-04-23T12:01:01;25946.06;;;-147.39;44.48
3524;BME280;1776;53.330;11.498;2023-04-23T12:03:26;25939.94;;;-147.39;43.51
3524;BME280;1776;53.330;11.498;2023-04-23T12:05:53;25982.66;;;-147.39;43.51
3524;BME280;1776;53.330;11.498;2023-04-23T12:08:20;26021.31;;;-147.39;42.56
3524;BME280;1776;53.330;11.498;2023-04-23T12:10:58;26057.94;;;-147.39;42.52
3524;BME280;1776;53.330;11.498;2023-04-23T12:13:29;26088.44;;;-147.39;42.30
3524;BME280;1776;53.330;11.498;2023-04-23T12:16:03;26017.25;;;-147.39;42.18
3524;BME280;1776;53.330;11.498;2023-04-23T12:18:30;26064.03;;;-147.39;42.52
3524;BME280;1776;53.330;11.498;2023-04-23T12:21:03;26153.56;;;-147.39;42.45
3524;BME280;1776;53.330;11.498;2023-04-23T12:23:29;26118.97;;;-147.39;41.24
3524;BME280;1776;53.330;11.498;2023-04-23T12:25:54;26121.00;;;-147.39;40.69
3524;BME280;1776;53.330;11.498;2023-04-23T12:28:23;26151.50;;;-147.39;41.78
3524;BME280;1776;53.330;11.498;2023-04-23T12:30:49;26239.00;;;-147.39;41.18
3524;BME280;1776;53.330;11.498;2023-04-23T12:33:14;26257.31;;;-147.39;39.83
3524;BME280;1776;53.330;11.498;2023-04-23T12:35:48;26275.63;;;-147.39;40.03
3524;BME280;1776;53.330;11.498;2023-04-23T12:38:21;26230.84;;;-147.39;39.78
3524;BME280;1776;53.330;11.498;2023-04-23T12:40:47;26198.31;;;-147.39;40.15
3524;BME280;1776;53.330;11.498;2023-04-23T12:43:13;26155.59;;;-147.39;41.35
3524;BME280;1776;53.330;11.498;2023-04-23T12:45:38;26127.09;;;-147.39;41.35
3524;BME280;1776;53.330;11.498;2023-04-23T12:48:03;26188.13;;;-147.39;40.68